Time;durP1;ratioP1;P1;durP2;ratioP2;P2;SDS_P1;SDS_P2;PMS_P1;PMS_P2;Temp;Humidity;BMP_temperature;BMP_pressure;BME280_temperature;BME280_humidity;BME280_pressure;Samples;Min_cycle;Max_cycle;Signal;HPM_P1;HPM_P2
2023/07/18 00:00:32;;;;;;;1.00;1.00;;;14.30;99.90;;;;;;6065690;23;20023;-93
2023/07/18 00:09:37;;;;;;;1.10;1.10;;;14.20;99.90;;;;;;6019185;23;20037;-93
2023/07/18 00:12:19;;;;;;;1.00;1.00;;;14.20;99.90;;;;;;6041185;23;20019;-91
2023/07/18 00:14:48;;;;;;;1.00;1.00;;;14.20;99.90;;;;;;6037771;23;20243;-91
2023/07/18 00:17:28;;;;;;;1.00;1.00;;;14.20;99.90;;;;;;6062632;23;20023;-90
2023/07/18 00:20:17;;;;;;;0.95;0.95;;;14.30;99.90;;;;;;6012824;23;20030;-91
2023/07/18 00:22:50;;;;;;;1.00;1.00;;;14.20;99.90;;;;;;6014729;23;20342;-93
2023/07/18 00:25:31;;;;;;;0.90;0.90;;;14.00;99.90;;;;;;6014790;23;20030;-89
2023/07/18 00:28:16;;;;;;;0.90;0.90;;;14.00;99.90;;;;;;6013125;23;20026;-91
2023/07/18 00:30:44;;;;;;;1.10;1.10;;;14.10;99.90;;;;;;6037760;23;20023;-90
2023/07/18 00:33:13;;;;;;;1.20;1.20;;;14.10;99.90;;;;;;6013465;23;20023;-90
2023/07/18 00:35:48;;;;;;;1.17;1.17;;;14.10;99.90;;;;;;6035385;23;20019;-87
2023/07/18 00:38:14;;;;;;;1.15;1.15;;;14.00;99.90;;;;;;6014882;23;20023;-90
2023/07/18 00:40:48;;;;;;;1.10;1.10;;;14.00;99.90;;;;;;6037698;23;20081;-91
2023/07/18 00:43:20;;;;;;;1.15;1.15;;;14.00;99.90;;;;;;6014641;23;20050;-95
2023/07/18 00:45:55;;;;;;;1.20;1.20;;;14.10;99.90;;;;;;6011961;23;20421;-94
2023/07/18 00:51:36;;;;;;;1.10;1.10;;;14.00;99.90;;;;;;6033978;23;20023;-92
2023/07/18 00:54:05;;;;;;;1.20;1.20;;;14.10;99.90;;;;;;6015237;23;20027;-94
2023/07/18 00:57:27;;;;;;;1.20;1.20;;;14.00;99.90;;;;;;6015344;23;20029;-93
2023/07/18 01:00:11;;;;;;;1.20;1.20;;;14.00;99.90;;;;;;6059304;23;20549;-94
2023/07/18 01:02:55;;;;;;;1.10;1.10;;;13.90;99.90;;;;;;6016353;23;20030;-95
2023/07/18 01:05:24;;;;;;;1.10;1.10;;;14.00;99.90;;;;;;6015790;23;20027;-91
2023/07/18 01:08:03;;;;;;;1.20;1.20;;;13.90;99.90;;;;;;6016276;23;20019;-90
2023/07/18 01:10:38;;;;;;;1.15;1.15;;;14.00;99.90;;;;;;6011794;23;20020;-91
2023/07/18 01:13:07;;;;;;;1.20;1.20;;;13.90;99.90;;;;;;6015469;23;20022;-94
2023/07/18 01:18:52;;;;;;;1.20;1.20;;;14.00;99.90;;;;;;6034524;23;20031;-93
2023/07/18 01:22:08;;;;;;;1.20;1.20;;;14.00;99.90;;;;;;6046005;23;20154;-94
2023/07/18 01:27:45;;;;;;;1.20;1.20;;;13.90;99.90;;;;;;6023064;23;20622;-92
2023/07/18 01:30:28;;;;;;;1.20;1.20;;;13.90;99.90;;;;;;6018550;23;20081;-93
2023/07/18 01:33:01;;;;;;;1.20;1.20;;;13.80;99.90;;;;;;6017505;23;20154;-92
2023/07/18 01:35:36;;;;;;;1.30;1.30;;;13.90;99.90;;;;;;6041057;23;20026;-92
2023/07/18 01:38:04;;;;;;;1.20;1.20;;;13.80;99.90;;;;;;6018340;23;20018;-93
2023/07/18 01:40:41;;;;;;;1.20;1.20;;;13.80;99.90;;;;;;6019935;23;20106;-93
2023/07/18 01:43:16;;;;;;;1.20;1.20;;;13.80;99.90;;;;;;6018321;23;20454;-92
2023/07/18 01:45:44;;;;;;;1.20;1.20;;;13.80;99.90;;;;;;6017015;23;20058;-92
2023/07/18 01:48:32;;;;;;;1.20;1.20;;;13.80;99.90;;;;;;6017253;23;20023;-91
2023/07/18 01:51:00;;;;;;;1.20;1.20;;;13.70;99.90;;;;;;6040385;23;20534;-93
2023/07/18 01:56:23;;;;;;;1.20;1.20;;;13.70;99.90;;;;;;6027952;23;20027;-93
2023/07/18 01:58:52;;;;;;;1.27;1.27;;;13.70;99.90;;;;;;6016610;23;20125;-91
2023/07/18 02:01:22;;;;;;;1.20;1.20;;;13.80;99.90;;;;;;6018405;23;20323;-92
2023/07/18 02:06:49;;;;;;;1.30;1.30;;;13.70;99.90;;;;;;6013836;23;20045;-92
2023/07/18 02:09:28;;;;;;;1.20;1.20;;;13.80;99.90;;;;;;6015366;23;20078;-92
2023/07/18 02:12:00;;;;;;;1.30;1.30;;;13.80;99.90;;;;;;6014846;23;20092;-91
2023/07/18 02:14:43;;;;;;;1.30;1.30;;;13.70;99.90;;;;;;6043438;23;20022;-90
2023/07/18 02:17:51;;;;;;;1.30;1.30;;;13.70;99.90;;;;;;6018226;23;20057;-92
2023/07/18 02:20:23;;;;;;;1.30;1.30;;;13.60;99.90;;;;;;6015887;23;20015;-91
2023/07/18 02:22:56;;;;;;;1.30;1.30;;;13.50;99.90;;;;;;6017403;23;20019;-93
2023/07/18 02:25:33;;;;;;;1.30;1.30;;;13.60;99.90;;;;;;6017116;23;20019;-92
2023/07/18 02:28:01;;;;;;;1.40;1.40;;;13.60;99.90;;;;;;6040063;23;20703;-90
2023/07/18 02:30:33;;;;;;;1.30;1.30;;;13.50;99.90;;;;;;6065165;23;20014;-91
2023/07/18 02:33:02;;;;;;;1.30;1.30;;;13.50;99.90;;;;;;6016337;23;20109;-92
2023/07/18 02:35:31;;;;;;;1.35;1.35;;;13.50;99.90;;;;;;6041220;23;20029;-92
2023/07/18 02:38:00;;;;;;;1.27;1.27;;;13.40;99.90;;;;;;6016607;23;20022;-94
2023/07/18 02:40:34;;;;;;;1.30;1.30;;;13.50;99.90;;;;;;6017963;23;20015;-92
2023/07/18 02:43:03;;;;;;;1.30;1.30;;;13.50;99.90;;;;;;6018742;23;20098;-92
2023/07/18 02:45:29;;;;;;;1.50;1.40;;;13.40;99.90;;;;;;6015693;23;20102;-91
2023/07/18 02:48:13;;;;;;;1.50;1.40;;;13.40;99.90;;;;;;6019297;23;20078;-92
2023/07/18 02:50:58;;;;;;;;;;;;;;;;;;;;;
2023/07/18 02:53:51;;;;;;;1.50;1.40;;;13.40;99.90;;;;;;6064639;23;20094;-92
2023/07/18 02:56:43;;;;;;;1.50;1.40;;;13.40;99.90;;;;;;6017511;23;20090;-92
2023/07/18 02:59:44;;;;;;;1.50;1.40;;;13.40;99.90;;;;;;5999708;23;20097;-94
2023/07/18 03:02:20;;;;;;;1.50;1.40;;;13.20;99.90;;;;;;6017626;23;20046;-92
2023/07/18 03:04:52;;;;;;;1.50;1.40;;;13.30;99.90;;;;;;6018181;23;20042;-93
2023/07/18 03:07:30;;;;;;;1.50;1.40;;;13.30;99.90;;;;;;6017628;23;20026;-93
2023/07/18 03:09:56;;;;;;;1.55;1.45;;;13.30;99.90;;;;;;6017875;23;20023;-93
2023/07/18 03:12:43;;;;;;;1.67;1.58;;;13.20;99.90;;;;;;6019021;23;20019;-95
2023/07/18 03:15:39;;;;;;;1.60;1.50;;;13.20;99.90;;;;;;6042978;23;20151;-96
2023/07/18 03:18:38;;;;;;;1.50;1.40;;;13.30;99.90;;;;;;6016109;23;20118;-93
2023/07/18 03:21:11;;;;;;;1.55;1.45;;;13.20;99.90;;;;;;6039795;23;20027;-94
2023/07/18 03:23:43;;;;;;;1.50;1.40;;;13.20;99.90;;;;;;6016907;23;20037;-90
2023/07/18 03:26:52;;;;;;;1.60;1.50;;;13.20;99.90;;;;;;6016473;23;20018;-93
2023/07/18 03:29:31;;;;;;;1.60;1.50;;;13.30;99.90;;;;;;5974137;23;20054;-92
2023/07/18 03:32:29;;;;;;;1.60;1.50;;;13.40;99.90;;;;;;6016823;23;20025;-94
2023/07/18 03:35:11;;;;;;;1.60;1.50;;;13.40;99.90;;;;;;5977244;23;20023;-92
2023/07/18 03:37:40;;;;;;;1.60;1.50;;;13.40;99.90;;;;;;6017960;23;20025;-92
2023/07/18 03:40:21;;;;;;;1.60;1.50;;;13.40;99.90;;;;;;6018330;23;20019;-95
2023/07/18 03:43:00;;;;;;;1.60;1.50;;;13.30;99.90;;;;;;6018590;23;20015;-95
2023/07/18 03:45:59;;;;;;;1.52;1.42;;;13.30;99.90;;;;;;6017108;23;20054;-93
2023/07/18 03:48:30;;;;;;;1.35;1.35;;;13.30;99.90;;;;;;6040017;23;20027;-91
2023/07/18 03:51:04;;;;;;;1.30;1.30;;;13.20;99.90;;;;;;6016753;23;20023;-91
2023/07/18 03:53:35;;;;;;;1.30;1.30;;;13.30;99.90;;;;;;6016952;23;20090;-91
2023/07/18 03:56:11;;;;;;;1.42;1.40;;;13.20;99.90;;;;;;6038911;23;20644;-91
2023/07/18 04:05:55;;;;;;;1.33;1.33;;;13.20;99.90;;;;;;6066737;23;20523;-93
2023/07/18 04:08:45;;;;;;;1.60;1.50;;;13.20;99.90;;;;;;6017102;23;20025;-91
2023/07/18 04:11:45;;;;;;;1.30;1.30;;;13.10;99.90;;;;;;6018633;23;20035;-94
2023/07/18 04:14:17;;;;;;;1.27;1.27;;;13.20;99.90;;;;;;6013524;23;20517;-89
2023/07/18 04:20:13;;;;;;;1.30;1.30;;;13.30;99.90;;;;;;6063497;23;20029;-90
2023/07/18 04:22:57;;;;;;;;;;;;;;;;;;;;;
2023/07/18 04:25:23;;;;;;;1.60;1.50;;;13.30;99.90;;;;;;6062315;23;20355;-89
2023/07/18 04:28:29;;;;;;;1.60;1.50;;;13.30;99.90;;;;;;6009978;23;20037;-91
2023/07/18 04:31:41;;;;;;;1.60;1.50;;;13.30;99.90;;;;;;5925026;23;20098;-96
2023/07/18 04:34:44;;;;;;;1.60;1.50;;;13.50;99.90;;;;;;6013927;23;20098;-92
2023/07/18 04:38:00;;;;;;;1.60;1.50;;;13.50;99.90;;;;;;6004901;23;20019;-96
2023/07/18 04:41:48;;;;;;;;;;;;;;;;;;;;;
2023/07/18 04:44:37;;;;;;;1.70;1.60;;;13.80;99.90;;;;;;5895691;24;20082;-94
2023/07/18 04:51:44;;;;;;;1.98;1.88;;;14.00;99.90;;;;;;5815646;24;20095;-94
2023/07/18 04:57:58;;;;;;;2.10;2.00;;;14.70;99.90;;;;;;5708035;25;20031;-94
2023/07/18 05:01:28;;;;;;;1.98;1.88;;;15.10;99.90;;;;;;5801470;24;20052;-93
2023/07/18 05:04:26;;;;;;;2.00;1.90;;;14.80;99.90;;;;;;5818134;24;20520;-90
2023/07/18 05:06:55;;;;;;;1.95;1.85;;;15.20;99.90;;;;;;5815765;24;20478;-92
2023/07/18 05:09:46;;;;;;;2.00;1.90;;;15.20;99.90;;;;;;5839452;24;20030;-89
2023/07/18 05:13:01;;;;;;;2.08;1.98;;;17.10;99.90;;;;;;5836953;24;20037;-90
2023/07/18 05:15:51;;;;;;;2.05;1.95;;;16.20;99.90;;;;;;5819776;24;20025;-94
2023/07/18 05:18:35;;;;;;;1.90;1.80;;;16.30;99.90;;;;;;5926128;23;20111;-93
2023/07/18 05:21:09;;;;;;;2.00;1.90;;;16.20;99.90;;;;;;5959418;23;20034;-94
2023/07/18 05:24:25;;;;;;;2.00;1.90;;;16.80;99.90;;;;;;5973817;23;20531;-94
2023/07/18 05:26:58;;;;;;;1.90;1.80;;;18.30;99.90;;;;;;5919864;23;20030;-89
2023/07/18 05:33:30;;;;;;;2.10;2.00;;;20.40;99.90;;;;;;5867021;24;20029;-93
2023/07/18 05:36:44;;;;;;;2.20;2.10;;;18.80;99.90;;;;;;5870399;24;20101;-94
2023/07/18 05:39:16;;;;;;;2.15;2.05;;;18.30;99.90;;;;;;6002163;23;20106;-88
2023/07/18 05:41:42;;;;;;;2.10;2.00;;;18.70;99.90;;;;;;6002976;23;20105;-91
2023/07/18 05:44:30;;;;;;;2.00;1.90;;;18.30;99.90;;;;;;6019198;23;20098;-94
2023/07/18 05:46:56;;;;;;;1.98;1.88;;;18.10;99.90;;;;;;6017075;23;20026;-89
2023/07/18 05:49:28;;;;;;;2.00;1.90;;;18.10;99.90;;;;;;6015725;23;20037;-91
2023/07/18 05:52:00;;;;;;;2.03;1.92;;;18.80;99.90;;;;;;6014583;23;20027;-89
2023/07/18 05:54:34;;;;;;;1.90;1.80;;;19.40;99.90;;;;;;6037612;23;20055;-94
2023/07/18 05:57:06;;;;;;;1.90;1.80;;;18.80;99.90;;;;;;6017038;23;20023;-93
2023/07/18 05:59:41;;;;;;;1.90;1.80;;;19.00;99.90;;;;;;6017759;23;20154;-90
2023/07/18 06:02:28;;;;;;;1.90;1.80;;;19.10;99.90;;;;;;5957289;24;20468;-90
2023/07/18 06:05:07;;;;;;;1.90;1.80;;;18.90;99.90;;;;;;5953224;24;20024;-93
2023/07/18 06:07:38;;;;;;;1.90;1.80;;;18.70;99.90;;;;;;5953153;24;20059;-92
2023/07/18 06:13:13;;;;;;;1.80;1.70;;;19.30;99.90;;;;;;5898691;24;20021;-86
2023/07/18 06:15:42;;;;;;;2.10;2.00;;;19.30;99.90;;;;;;5942054;24;20452;-91
2023/07/18 06:18:08;;;;;;;2.10;2.00;;;19.00;99.90;;;;;;5975278;24;20064;-89
2023/07/18 06:20:48;;;;;;;2.00;1.90;;;18.70;99.90;;;;;;6018140;23;20094;-90
2023/07/18 06:23:14;;;;;;;2.10;2.00;;;18.50;99.90;;;;;;6062616;23;20454;-88
2023/07/18 06:25:40;;;;;;;1.88;1.77;;;18.70;99.90;;;;;;6038998;23;20102;-88
2023/07/18 06:28:08;;;;;;;1.85;1.75;;;18.80;99.90;;;;;;6015776;23;20023;-88
2023/07/18 06:30:37;;;;;;;1.75;1.65;;;19.10;99.90;;;;;;6038950;23;20015;-88
2023/07/18 06:33:03;;;;;;;1.73;1.63;;;19.40;99.90;;;;;;6037689;23;20026;-88
2023/07/18 06:35:59;;;;;;;1.60;1.50;;;19.60;99.90;;;;;;6024296;23;20181;-87
2023/07/18 06:41:35;;;;;;;1.70;1.60;;;19.90;99.90;;;;;;6036935;23;20031;-89
2023/07/18 06:44:14;;;;;;;1.50;1.40;;;19.90;99.90;;;;;;6038597;23;20085;-90
2023/07/18 06:46:46;;;;;;;1.50;1.40;;;20.10;99.90;;;;;;6034158;23;20024;-90
2023/07/18 06:49:24;;;;;;;1.65;1.55;;;20.40;99.90;;;;;;6036602;23;20027;-90
2023/07/18 06:52:16;;;;;;;1.52;1.42;;;20.50;99.90;;;;;;6014304;23;20027;-88
2023/07/18 06:54:45;;;;;;;1.60;1.50;;;20.50;99.90;;;;;;6038274;23;20026;-91
2023/07/18 06:57:21;;;;;;;1.25;1.25;;;20.70;99.90;;;;;;6014759;23;20131;-91
2023/07/18 06:59:53;;;;;;;1.30;1.30;;;20.80;99.90;;;;;;6014170;23;20015;-88
2023/07/18 07:02:40;;;;;;;1.48;1.40;;;20.80;99.90;;;;;;6063144;23;20029;-89
2023/07/18 07:05:09;;;;;;;1.52;1.42;;;21.00;99.90;;;;;;6014678;23;20447;-90
2023/07/18 07:07:41;;;;;;;1.35;1.33;;;21.20;99.90;;;;;;6037607;23;20050;-90
2023/07/18 07:10:13;;;;;;;1.30;1.30;;;21.30;99.90;;;;;;6036448;23;20019;-90
2023/07/18 07:12:41;;;;;;;1.75;1.65;;;21.10;99.90;;;;;;6060070;23;20470;-91
2023/07/18 07:15:11;;;;;;;1.65;1.55;;;21.40;99.90;;;;;;6060545;23;20339;-89
2023/07/18 07:17:49;;;;;;;1.87;1.77;;;21.60;99.90;;;;;;6013915;23;20034;-92
2023/07/18 07:20:44;;;;;;;1.75;1.65;;;21.60;99.90;;;;;;6015576;23;20018;-92
2023/07/18 07:23:21;;;;;;;1.95;1.85;;;22.10;99.90;;;;;;5965057;23;20018;-92
2023/07/18 07:26:05;;;;;;;1.98;1.88;;;21.90;99.90;;;;;;5918515;24;20036;-91
2023/07/18 07:28:35;;;;;;;2.03;1.92;;;21.50;99.90;;;;;;6009991;23;20034;-87
2023/07/18 07:31:16;;;;;;;2.05;1.95;;;21.40;99.90;;;;;;6037617;23;20027;-91
2023/07/18 07:33:45;;;;;;;1.83;1.73;;;21.80;99.90;;;;;;6015347;23;20035;-89
2023/07/18 07:36:23;;;;;;;1.90;1.80;;;21.90;99.90;;;;;;6039614;23;20051;-89
2023/07/18 07:38:52;;;;;;;1.95;1.85;;;22.10;99.90;;;;;;6014386;23;20019;-89
2023/07/18 07:41:34;;;;;;;1.95;1.85;;;22.00;99.90;;;;;;6040683;23;20026;-89
2023/07/18 07:47:22;;;;;;;2.15;2.05;;;22.10;99.90;;;;;;6023322;23;20038;-95
2023/07/18 07:50:19;;;;;;;2.03;1.92;;;22.30;99.90;;;;;;6015796;23;20027;-91
2023/07/18 07:53:04;;;;;;;2.00;1.90;;;22.40;99.90;;;;;;5998953;23;20027;-93
2023/07/18 07:56:22;;;;;;;2.00;1.90;;;22.30;99.90;;;;;;6014821;23;20018;-95
2023/07/18 07:59:00;;;;;;;1.98;1.88;;;22.50;99.90;;;;;;6023814;23;20514;-95
2023/07/18 08:01:38;;;;;;;2.00;1.90;;;22.60;99.90;;;;;;6038264;23;20018;-87
2023/07/18 08:04:38;;;;;;;2.17;2.08;;;22.70;99.90;;;;;;6034627;23;20054;-93
2023/07/18 08:07:14;;;;;;;2.10;2.00;;;22.70;99.90;;;;;;6013565;23;20022;-92
2023/07/18 08:09:55;;;;;;;1.90;1.80;;;22.70;99.90;;;;;;6013412;23;20027;-92
2023/07/18 08:12:36;;;;;;;;;;;;;;;;;;;;;
2023/07/18 08:15:26;;;;;;;1.92;1.83;;;23.10;99.90;;;;;;6049411;23;20025;-89
2023/07/18 08:21:30;;;;;;;2.13;2.03;;;23.10;99.90;;;;;;5975026;23;20031;-89
2023/07/18 08:24:31;;;;;;;0.30;0.30;;;23.10;99.90;;;;;;5929485;24;20024;-96
2023/07/18 08:27:06;;;;;;;1.90;1.80;;;23.30;99.90;;;;;;5927837;23;20024;-92
2023/07/18 08:29:35;;;;;;;1.63;1.52;;;23.10;99.90;;;;;;5926533;24;20476;-86
2023/07/18 08:32:30;;;;;;;0.30;0.30;;;23.00;99.90;;;;;;5951942;24;20982;-89
2023/07/18 08:35:18;;;;;;;1.90;1.80;;;23.10;99.90;;;;;;5965611;23;20023;-91
2023/07/18 08:37:50;;;;;;;0.30;0.30;;;23.00;99.90;;;;;;6038252;23;20102;-91
2023/07/18 08:40:16;;;;;;;2.15;2.05;;;23.50;99.90;;;;;;6036306;23;20545;-90
2023/07/18 08:43:16;;;;;;;;;;;;;;;;;;;;;
2023/07/18 08:45:43;;;;;;;0.32;0.32;;;23.50;99.90;;;;;;6033219;23;20403;-87
2023/07/18 08:48:34;;;;;;;1.73;1.63;;;23.60;99.90;;;;;;6012524;23;20034;-94
2023/07/18 08:54:32;;;;;;;2.38;2.28;;;23.70;99.90;;;;;;5941365;24;20029;-94
2023/07/18 08:57:11;;;;;;;0.32;0.32;;;23.70;99.90;;;;;;5927077;24;20089;-93
2023/07/18 09:00:05;;;;;;;2.13;2.03;;;23.90;99.90;;;;;;6004787;23;20021;-91
2023/07/18 09:03:02;;;;;;;2.47;2.38;;;23.80;99.90;;;;;;6015174;23;20015;-93
2023/07/18 09:05:51;;;;;;;0.30;0.30;;;24.10;99.90;;;;;;6038023;23;20078;-88
2023/07/18 09:08:40;;;;;;;1.52;1.40;;;24.00;99.90;;;;;;6017394;23;20030;-89
2023/07/18 09:11:31;;;;;;;0.40;0.40;;;24.20;99.90;;;;;;6040165;23;20447;-90
2023/07/18 09:14:08;;;;;;;1.52;1.45;;;24.20;99.90;;;;;;5903913;24;20114;-95
2023/07/18 09:16:36;;;;;;;;;;;24.40;99.90;;;;;;5904539;24;20103;-94
2023/07/18 09:22:01;;;;;;;0.30;0.30;;;24.90;99.90;;;;;;5922292;24;20036;-86
2023/07/18 09:24:42;;;;;;;0.30;0.30;;;24.60;99.90;;;;;;5944876;24;20104;-88
2023/07/18 09:27:41;;;;;;;0.30;0.30;;;24.90;99.90;;;;;;5898763;24;20752;-87
2023/07/18 09:30:36;;;;;;;0.30;0.30;;;24.90;99.90;;;;;;5893251;24;20531;-89
2023/07/18 09:33:11;;;;;;;0.30;0.30;;;24.80;99.90;;;;;;5920457;24;20116;-86
2023/07/18 09:36:03;;;;;;;0.30;0.30;;;24.70;99.90;;;;;;5942935;24;20025;-86
2023/07/18 09:38:32;;;;;;;0.30;0.30;;;24.80;99.90;;;;;;5975873;23;20023;-87
2023/07/18 09:41:22;;;;;;;0.32;0.32;;;24.80;99.90;;;;;;6037974;23;20011;-90
2023/07/18 09:44:18;;;;;;;0.30;0.30;;;25.00;99.90;;;;;;6012259;23;20026;-86
2023/07/18 09:46:55;;;;;;;0.35;0.35;;;25.20;99.90;;;;;;6034660;23;20019;-85
2023/07/18 09:49:28;;;;;;;0.30;0.30;;;25.40;99.90;;;;;;6036334;23;20039;-86
2023/07/18 09:52:29;;;;;;;0.30;0.30;;;25.70;99.90;;;;;;6012937;23;20030;-88
2023/07/18 09:55:04;;;;;;;0.30;0.30;;;25.30;99.90;;;;;;6035872;23;20029;-85
2023/07/18 09:57:39;;;;;;;0.30;0.30;;;25.30;99.90;;;;;;6036360;23;20074;-87
2023/07/18 10:00:46;;;;;;;0.30;0.30;;;25.20;99.90;;;;;;6034916;23;20082;-87
2023/07/18 10:03:21;;;;;;;0.40;0.40;;;25.20;99.90;;;;;;6031413;23;20114;-90
2023/07/18 10:06:02;;;;;;;;;;;25.20;99.90;;;;;;6014961;23;20477;-92
2023/07/18 10:08:46;;;;;;;0.30;0.30;;;25.40;99.90;;;;;;6036195;23;19924;-88
2023/07/18 10:11:28;;;;;;;0.30;0.30;;;25.70;99.90;;;;;;6033578;23;20694;-87
2023/07/18 10:14:13;;;;;;;0.30;0.30;;;25.70;99.90;;;;;;6010454;23;20032;-85
2023/07/18 10:16:44;;;;;;;0.30;0.30;;;25.80;99.90;;;;;;6011188;23;20034;-88
2023/07/18 10:19:45;;;;;;;0.30;0.30;;;26.00;99.90;;;;;;6036007;23;20022;-91
2023/07/18 10:22:11;;;;;;;0.30;0.30;;;26.00;99.90;;;;;;6005530;23;20062;-90
2023/07/18 10:24:49;;;;;;;0.30;0.30;;;26.00;99.90;;;;;;5979131;23;20096;-90
2023/07/18 10:27:24;;;;;;;0.30;0.30;;;26.20;99.90;;;;;;6010160;23;20038;-88
2023/07/18 10:30:25;;;;;;;0.30;0.30;;;26.40;99.90;;;;;;6008022;23;20058;-88
2023/07/18 10:33:29;;;;;;;0.30;0.30;;;26.30;99.90;;;;;;6010542;23;20023;-89
2023/07/18 10:35:54;;;;;;;0.40;0.40;;;26.10;99.90;;;;;;6033890;23;20050;-88
2023/07/18 10:38:21;;;;;;;0.20;0.20;;;25.80;99.90;;;;;;6012023;23;20466;-91
2023/07/18 10:40:53;;;;;;;0.30;0.30;;;25.90;99.90;;;;;;6034720;23;20023;-91
2023/07/18 10:43:24;;;;;;;0.30;0.30;;;26.10;99.90;;;;;;6032610;23;20019;-87
2023/07/18 10:46:02;;;;;;;0.30;0.30;;;26.30;99.90;;;;;;6059171;23;20059;-86
2023/07/18 10:48:37;;;;;;;0.30;0.30;;;26.50;99.90;;;;;;6010299;23;20240;-87
2023/07/18 10:51:11;;;;;;;0.22;0.22;;;26.90;99.90;;;;;;6059903;23;20053;-88
2023/07/18 10:53:44;;;;;;;0.30;0.30;;;26.80;99.90;;;;;;6058658;23;20014;-89
2023/07/18 10:56:31;;;;;;;0.30;0.30;;;26.70;99.90;;;;;;6010889;23;20063;-91
2023/07/18 10:59:00;;;;;;;0.30;0.30;;;26.80;99.90;;;;;;6031768;23;20045;-89
2023/07/18 11:01:27;;;;;;;0.30;0.30;;;26.30;99.90;;;;;;6011925;23;20074;-88
2023/07/18 11:03:53;;;;;;;0.30;0.30;;;26.90;99.90;;;;;;6033907;23;20022;-89
2023/07/18 11:06:21;;;;;;;0.30;0.30;;;27.10;99.90;;;;;;6034859;23;20023;-89
2023/07/18 11:08:47;;;;;;;0.30;0.30;;;27.20;99.90;;;;;;6035336;23;20025;-90
2023/07/18 11:11:18;;;;;;;0.30;0.30;;;26.90;99.90;;;;;;6034311;23;20416;-88
2023/07/18 11:13:49;;;;;;;0.30;0.30;;;26.40;99.90;;;;;;6015200;23;20145;-88
2023/07/18 11:16:29;;;;;;;0.22;0.22;;;26.80;99.90;;;;;;6010968;23;20379;-87
2023/07/18 11:18:59;;;;;;;0.30;0.30;;;26.60;99.90;;;;;;6036041;23;20022;-89
2023/07/18 11:21:26;;;;;;;0.30;0.30;;;26.70;99.90;;;;;;6035466;23;20451;-89
2023/07/18 11:23:53;;;;;;;0.20;0.20;;;26.90;99.90;;;;;;6011319;23;20023;-89
2023/07/18 11:26:19;;;;;;;0.30;0.30;;;26.90;99.90;;;;;;6011369;23;20050;-88
2023/07/18 11:28:50;;;;;;;0.30;0.30;;;27.00;99.90;;;;;;6036198;23;20370;-90
2023/07/18 11:31:26;;;;;;;0.30;0.30;;;27.20;99.90;;;;;;6035387;23;20034;-84
2023/07/18 11:33:56;;;;;;;0.30;0.30;;;27.20;99.90;;;;;;6010623;23;20090;-86
2023/07/18 11:36:57;;;;;;;0.25;0.25;;;27.20;99.90;;;;;;6011569;23;20023;-85
2023/07/18 11:39:27;;;;;;;0.30;0.30;;;27.40;99.90;;;;;;6035942;23;20086;-88
2023/07/18 11:42:06;;;;;;;0.30;0.30;;;27.00;99.90;;;;;;6012700;23;20068;-90
2023/07/18 11:44:31;;;;;;;0.30;0.30;;;27.00;99.90;;;;;;6010689;23;20082;-92
2023/07/18 11:47:10;;;;;;;0.30;0.30;;;26.80;99.90;;;;;;6034890;23;20023;-89
2023/07/18 11:49:36;;;;;;;0.22;0.22;;;27.00;99.90;;;;;;6013845;23;20026;-88
2023/07/18 11:52:20;;;;;;;0.30;0.30;;;27.20;99.90;;;;;;6035034;23;20033;-88
2023/07/18 11:54:47;;;;;;;0.30;0.30;;;27.30;99.90;;;;;;6007547;23;20015;-89
2023/07/18 11:57:30;;;;;;;0.20;0.20;;;27.20;99.90;;;;;;6014491;23;20025;-92
2023/07/18 11:59:56;;;;;;;0.30;0.30;;;27.40;99.90;;;;;;6007942;23;20027;-87
2023/07/18 12:02:21;;;;;;;0.30;0.30;;;27.50;99.90;;;;;;6058349;23;20058;-86
2023/07/18 12:04:56;;;;;;;0.30;0.30;;;27.80;99.90;;;;;;6033750;23;20101;-91
2023/07/18 12:07:23;;;;;;;0.30;0.30;;;27.70;99.90;;;;;;6010565;23;20038;-86
2023/07/18 12:10:10;;;;;;;0.30;0.30;;;27.70;99.90;;;;;;6034816;23;20522;-87
2023/07/18 12:15:35;;;;;;;0.25;0.25;;;27.80;99.90;;;;;;6026075;23;20069;-86
2023/07/18 12:18:01;;;;;;;0.30;0.30;;;28.00;99.90;;;;;;6058030;23;20046;-86
2023/07/18 12:20:45;;;;;;;;;;;;;;;;;;;;;
2023/07/18 12:23:11;;;;;;;0.30;0.30;;;27.90;99.90;;;;;;6056955;23;20027;-90
2023/07/18 12:25:40;;;;;;;0.30;0.30;;;27.90;99.90;;;;;;6010253;23;20022;-85
2023/07/18 12:28:06;;;;;;;0.30;0.30;;;27.70;99.90;;;;;;6034254;23;20027;-88
2023/07/18 12:30:37;;;;;;;0.30;0.30;;;28.00;99.90;;;;;;6033926;23;20023;-86
2023/07/18 12:33:06;;;;;;;0.30;0.30;;;27.90;99.90;;;;;;6010859;23;20042;-87
2023/07/18 12:35:38;;;;;;;0.30;0.30;;;28.00;99.90;;;;;;6058805;23;20062;-92
2023/07/18 12:38:13;;;;;;;0.20;0.20;;;27.90;99.60;;;;;;6011261;23;20026;-89
2023/07/18 12:40:41;;;;;;;0.30;0.30;;;28.00;99.90;;;;;;6059968;23;20052;-92
2023/07/18 12:43:10;;;;;;;0.30;0.30;;;28.20;99.90;;;;;;6033521;23;20057;-86
2023/07/18 12:45:38;;;;;;;0.20;0.20;;;27.80;99.80;;;;;;6057424;23;20460;-90
2023/07/18 12:48:04;;;;;;;0.30;0.30;;;27.90;99.90;;;;;;6033061;23;20027;-90
2023/07/18 12:50:33;;;;;;;0.30;0.30;;;27.90;99.90;;;;;;6035125;23;20402;-91
2023/07/18 12:53:44;;;;;;;0.28;0.28;;;28.20;99.90;;;;;;6013264;23;20023;-92
2023/07/18 12:55:50;;;;;;;0.30;0.30;;;28.40;99.70;;;;;;6017190;23;20019;-89
2023/07/18 12:58:15;;;;;;;0.30;0.30;;;28.10;99.70;;;;;;6010258;23;20019;-87
2023/07/18 13:00:50;;;;;;;0.30;0.30;;;28.10;99.00;;;;;;6033396;23;20282;-87
2023/07/18 13:03:17;;;;;;;0.30;0.30;;;28.20;99.90;;;;;;6010149;23;20470;-92
2023/07/18 13:05:58;;;;;;;0.20;0.20;;;28.10;99.90;;;;;;6013113;23;20065;-92
2023/07/18 13:08:24;;;;;;;0.30;0.30;;;28.30;99.50;;;;;;6060135;23;20030;-93
2023/07/18 13:10:58;;;;;;;0.30;0.30;;;28.40;98.00;;;;;;6015595;23;20061;-87
2023/07/18 13:13:27;;;;;;;0.20;0.20;;;28.30;99.00;;;;;;6013526;23;20023;-93
2023/07/18 13:16:05;;;;;;;0.30;0.30;;;28.20;99.10;;;;;;6035364;23;20022;-90
2023/07/18 13:18:33;;;;;;;0.30;0.30;;;28.10;99.40;;;;;;6060103;23;20458;-90
2023/07/18 13:21:44;;;;;;;;;;;;;;;;;;;;;
2023/07/18 13:24:29;;;;;;;0.30;0.30;;;28.40;99.70;;;;;;6046179;23;20097;-88
2023/07/18 13:27:01;;;;;;;0.30;0.30;;;28.30;97.30;;;;;;6034287;23;20023;-89
2023/07/18 13:29:27;;;;;;;0.30;0.30;;;28.40;99.80;;;;;;6013799;23;20485;-88
2023/07/18 13:32:16;;;;;;;0.30;0.30;;;28.30;98.80;;;;;;6056126;23;20023;-89
2023/07/18 13:34:41;;;;;;;0.30;0.30;;;28.50;99.60;;;;;;6039831;23;20776;-89
2023/07/18 13:37:10;;;;;;;0.30;0.30;;;28.40;98.90;;;;;;6060316;23;20086;-89
2023/07/18 13:39:36;;;;;;;0.30;0.30;;;28.50;99.30;;;;;;6033332;23;20027;-88
2023/07/18 13:42:02;;;;;;;0.20;0.20;;;28.30;98.40;;;;;;6012078;23;20026;-86
2023/07/18 13:44:42;;;;;;;0.30;0.30;;;28.20;97.20;;;;;;6011388;23;20029;-88
2023/07/18 13:47:08;;;;;;;0.30;0.30;;;28.30;97.70;;;;;;6011414;23;20520;-88
2023/07/18 13:49:36;;;;;;;0.28;0.28;;;28.10;98.20;;;;;;6034579;23;20027;-87
2023/07/18 13:52:02;;;;;;;0.30;0.30;;;27.70;97.80;;;;;;6032612;23;20526;-87
2023/07/18 13:54:28;;;;;;;0.30;0.30;;;27.10;97.60;;;;;;6034514;23;20159;-88
2023/07/18 13:57:04;;;;;;;0.30;0.30;;;26.80;99.40;;;;;;6059494;23;20072;-93
2023/07/18 13:59:35;;;;;;;0.30;0.30;;;26.90;99.80;;;;;;6010803;23;20030;-89
2023/07/18 14:02:04;;;;;;;0.30;0.30;;;27.60;99.00;;;;;;6032707;23;20071;-87
2023/07/18 14:04:33;;;;;;;0.30;0.30;;;28.10;98.60;;;;;;6012207;23;20447;-85
2023/07/18 14:07:19;;;;;;;0.30;0.30;;;27.90;96.40;;;;;;6035926;23;20054;-87
2023/07/18 14:09:45;;;;;;;0.30;0.30;;;28.40;97.90;;;;;;6040060;23;20023;-87
2023/07/18 14:12:11;;;;;;;0.30;0.30;;;28.30;96.90;;;;;;6034636;23;20747;-86
2023/07/18 14:14:43;;;;;;;0.30;0.30;;;28.40;96.90;;;;;;6035627;23;20023;-89
2023/07/18 14:17:12;;;;;;;0.30;0.30;;;28.20;96.60;;;;;;6034812;23;20019;-84
2023/07/18 14:19:41;;;;;;;0.30;0.30;;;28.40;96.20;;;;;;6011673;23;20142;-87
2023/07/18 14:22:16;;;;;;;0.30;0.30;;;28.40;96.70;;;;;;6058553;23;20541;-90
2023/07/18 14:24:45;;;;;;;0.30;0.30;;;28.50;97.10;;;;;;6011252;23;20529;-88
2023/07/18 14:27:25;;;;;;;0.30;0.30;;;28.90;96.10;;;;;;6014157;23;20027;-95
2023/07/18 14:29:56;;;;;;;0.30;0.30;;;28.80;97.10;;;;;;6034700;23;20025;-91
2023/07/18 14:33:01;;;;;;;0.30;0.30;;;28.30;96.50;;;;;;6035855;23;20110;-88
2023/07/18 14:35:33;;;;;;;0.30;0.30;;;27.70;97.40;;;;;;6009424;23;20022;-88
2023/07/18 14:38:06;;;;;;;0.30;0.30;;;27.50;97.10;;;;;;6060613;23;20724;-90
2023/07/18 14:40:55;;;;;;;0.30;0.30;;;27.30;97.10;;;;;;6012144;23;20065;-89
2023/07/18 14:43:31;;;;;;;0.30;0.30;;;27.50;97.40;;;;;;6015634;23;20030;-89
2023/07/18 14:45:58;;;;;;;0.30;0.30;;;27.80;96.90;;;;;;6036127;23;20029;-86
2023/07/18 14:48:41;;;;;;;0.30;0.30;;;27.80;97.60;;;;;;6035042;23;20029;-90
2023/07/18 14:51:19;;;;;;;0.30;0.30;;;27.50;97.10;;;;;;6012275;23;20093;-86
2023/07/18 14:53:50;;;;;;;0.30;0.30;;;27.50;97.30;;;;;;6035506;23;20023;-90
2023/07/18 14:56:40;;;;;;;0.30;0.30;;;27.30;96.90;;;;;;6033712;23;20086;-92
2023/07/18 14:59:10;;;;;;;0.20;0.20;;;27.10;95.70;;;;;;6037051;23;20444;-86